Bartonville, Texas
Current Conditions -  °F | °C
As of 11:53 AM on Friday 19 Dec 2014 (Local Time) from KDTO Reporting Station
Haze Haze  
Wind Chill:   Ceiling: 600
Heat Index:   Visibility: 6mi
Dew Point:   Wind: 10mph
Humidity: 89%   Direction: 20°NNE
Pressure: 30.19"   Gusts: NA
Location:  33.108°N, 97.1641°W
Report Text: KDTO 191753Z 02009KT 6SM BR OVC006 08/06 A3019 RMK AO2 SLP222 T00780061 10078 20067 58002
Loading
Personal Weather Stations






























Interactive Weather Map New forecast layout! Learn more

10-Day Weather Forecast

Advertisements
Track Severe Weather on mobile